createdAt,value
2018-03-28T00:00:40.605Z,94.00
2018-03-28T00:03:08.744Z,93.90
2018-03-28T00:05:36.860Z,93.90
2018-03-28T00:08:05.774Z,93.80
2018-03-28T00:10:33.894Z,93.80
2018-03-28T00:13:02.020Z,94.00
2018-03-28T00:15:30.124Z,93.90
2018-03-28T00:17:58.248Z,94.30
2018-03-28T00:20:27.119Z,94.30
2018-03-28T00:22:56.349Z,94.20
2018-03-28T00:25:24.495Z,94.30
2018-03-28T00:27:52.619Z,94.40
2018-03-28T00:30:20.728Z,94.30
2018-03-28T00:32:48.859Z,94.40
2018-03-28T00:35:16.969Z,94.60
2018-03-28T00:37:45.108Z,94.80
2018-03-28T00:40:13.268Z,94.50
2018-03-28T00:42:41.400Z,94.60
2018-03-28T00:45:09.507Z,94.60
2018-03-28T00:47:38.394Z,94.70
2018-03-28T00:50:06.502Z,94.70
2018-03-28T00:52:34.632Z,94.60
2018-03-28T00:55:03.499Z,94.70
2018-03-28T00:57:31.628Z,94.70
2018-03-28T01:00:01.041Z,94.80
2018-03-28T01:02:29.171Z,95.10
2018-03-28T01:04:58.422Z,94.40
2018-03-28T01:07:26.555Z,94.60
2018-03-28T01:09:54.666Z,94.40
2018-03-28T01:12:22.809Z,94.40
2018-03-28T01:14:50.907Z,94.40
2018-03-28T01:17:19.047Z,94.40
2018-03-28T01:19:47.155Z,94.10
2018-03-28T01:22:15.279Z,94.00
2018-03-28T01:24:44.155Z,93.90
2018-03-28T01:27:12.298Z,93.80
2018-03-28T01:29:40.390Z,93.80
2018-03-28T01:32:08.515Z,93.60
2018-03-28T01:34:36.618Z,93.70
2018-03-28T01:37:04.746Z,93.50
2018-03-28T01:39:32.868Z,93.70
2018-03-28T01:42:00.999Z,93.70
2018-03-28T01:44:29.099Z,93.70
2018-03-28T01:46:57.235Z,93.50
2018-03-28T01:49:26.106Z,93.50
2018-03-28T01:51:54.259Z,93.50
2018-03-28T01:54:22.369Z,93.60
2018-03-28T01:56:51.265Z,93.30
2018-03-28T01:59:19.370Z,93.30
2018-03-28T02:01:47.515Z,93.00
2018-03-28T02:04:15.626Z,93.30
2018-03-28T02:06:43.727Z,93.10
2018-03-28T02:09:11.869Z,92.80
2018-03-28T02:11:39.976Z,92.80
2018-03-28T02:14:08.103Z,92.90
2018-03-28T02:16:36.218Z,92.80
2018-03-28T02:19:04.352Z,93.10
2018-03-28T02:21:32.454Z,93.00
2018-03-28T02:24:00.600Z,93.00
2018-03-28T02:26:28.702Z,93.10
2018-03-28T02:28:56.846Z,93.30
2018-03-28T02:31:24.965Z,93.50
2018-03-28T02:33:53.109Z,93.60
2018-03-28T02:36:21.210Z,93.30
2018-03-28T02:38:49.373Z,93.30
2018-03-28T02:41:17.500Z,93.40
2018-03-28T02:43:45.652Z,93.50
2018-03-28T02:46:13.765Z,93.40
2018-03-28T02:48:41.896Z,93.30
2018-03-28T02:51:10.004Z,93.40
2018-03-28T02:53:38.144Z,93.20
2018-03-28T02:56:07.019Z,93.20
2018-03-28T02:58:35.913Z,93.40
2018-03-28T03:01:04.794Z,93.60
2018-03-28T03:03:32.925Z,93.60
2018-03-28T03:06:01.037Z,93.50
2018-03-28T03:08:29.166Z,93.30
2018-03-28T03:10:57.293Z,93.20
2018-03-28T03:13:26.206Z,93.20
2018-03-28T03:15:54.306Z,93.20
2018-03-28T03:18:22.445Z,93.40
2018-03-28T03:20:50.554Z,93.40
2018-03-28T03:23:18.691Z,93.60
2018-03-28T03:25:46.806Z,93.60
2018-03-28T03:28:14.937Z,93.40
2018-03-28T03:30:43.061Z,93.70
2018-03-28T03:33:11.193Z,93.90
2018-03-28T03:35:39.314Z,93.80
2018-03-28T03:38:07.455Z,93.90
2018-03-28T03:40:35.660Z,93.60
2018-03-28T03:43:03.796Z,93.60
2018-03-28T03:45:31.912Z,93.80
2018-03-28T03:48:00.046Z,93.80
2018-03-28T03:50:28.148Z,93.80
2018-03-28T03:52:56.282Z,93.90
2018-03-28T03:55:24.408Z,93.90
2018-03-28T03:57:52.546Z,94.00
2018-03-28T04:00:21.586Z,94.00
2018-03-28T04:02:49.723Z,94.20
2018-03-28T04:05:17.844Z,94.30
2018-03-28T04:07:46.746Z,93.90
2018-03-28T04:10:14.865Z,93.90
2018-03-28T04:12:42.995Z,93.90
2018-03-28T04:15:11.098Z,94.10
2018-03-28T04:17:39.229Z,93.80
2018-03-28T04:20:08.104Z,93.80
2018-03-28T04:22:36.246Z,93.90
2018-03-28T04:25:04.357Z,93.80
2018-03-28T04:27:33.042Z,93.80
2018-03-28T04:30:01.158Z,93.80
2018-03-28T04:32:29.392Z,93.80
2018-03-28T04:34:58.752Z,93.90
2018-03-28T04:37:26.854Z,94.10
2018-03-28T04:39:55.771Z,94.10
2018-03-28T04:42:24.655Z,94.10
2018-03-28T04:44:53.558Z,94.40
2018-03-28T04:47:22.423Z,94.20
2018-03-28T04:49:50.559Z,94.20
2018-03-28T04:52:18.681Z,93.90
2018-03-28T04:54:46.813Z,94.10
2018-03-28T04:57:14.926Z,94.20
2018-03-28T04:59:43.056Z,93.90
2018-03-28T05:02:11.164Z,93.80
2018-03-28T05:04:39.318Z,93.80
2018-03-28T05:07:07.428Z,93.90
2018-03-28T05:09:36.704Z,93.80
2018-03-28T05:12:04.824Z,94.10
2018-03-28T05:14:32.946Z,94.10
2018-03-28T05:17:01.076Z,94.10
2018-03-28T05:19:29.212Z,93.90
2018-03-28T05:21:57.317Z,93.50
2018-03-28T05:24:25.542Z,93.40
2018-03-28T05:26:53.693Z,93.20
2018-03-28T05:29:21.827Z,93.10
2018-03-28T05:31:50.752Z,92.80
2018-03-28T05:34:18.856Z,92.80
2018-03-28T05:36:46.976Z,92.60
2018-03-28T05:39:15.102Z,92.70
2018-03-28T05:41:43.235Z,92.70
2018-03-28T05:44:11.345Z,92.90
2018-03-28T05:46:39.451Z,93.20
2018-03-28T05:49:08.342Z,93.40
2018-03-28T05:51:37.205Z,93.40
2018-03-28T05:54:05.349Z,93.40
2018-03-28T05:56:33.446Z,93.30
2018-03-28T05:59:01.581Z,93.50
2018-03-28T06:01:29.686Z,93.30
2018-03-28T06:03:57.814Z,93.30
2018-03-28T06:06:25.924Z,93.00
2018-03-28T06:08:54.057Z,92.90
2018-03-28T06:11:22.180Z,93.20
2018-03-28T06:13:50.313Z,93.30
2018-03-28T06:16:18.430Z,93.20
2018-03-28T06:18:47.552Z,93.10
2018-03-28T06:21:16.427Z,93.00
2018-03-28T06:23:44.560Z,93.00
2018-03-28T06:26:12.686Z,93.20
2018-03-28T06:28:40.811Z,93.00
2018-03-28T06:31:08.920Z,93.20
2018-03-28T06:33:37.130Z,93.90
2018-03-28T06:36:05.273Z,93.40
2018-03-28T06:38:33.404Z,93.30
2018-03-28T06:41:01.520Z,93.10
2018-03-28T06:43:29.758Z,93.60
2018-03-28T06:45:57.887Z,92.70
2018-03-28T06:48:26.001Z,92.20
2018-03-28T06:50:54.179Z,91.80
2018-03-28T06:53:22.284Z,91.90
2018-03-28T06:55:50.411Z,92.50
2018-03-28T06:58:18.710Z,93.20
2018-03-28T07:00:47.987Z,94.10
2018-03-28T07:03:16.106Z,94.10
2018-03-28T07:05:44.263Z,93.90
2018-03-28T07:08:12.459Z,93.40
2018-03-28T07:10:40.586Z,92.90
2018-03-28T07:13:08.876Z,93.30
2018-03-28T07:15:37.835Z,92.90
2018-03-28T07:18:06.085Z,92.90
2018-03-28T07:20:34.300Z,92.80
2018-03-28T07:23:03.180Z,92.70
2018-03-28T07:25:31.636Z,92.70
2018-03-28T07:28:00.600Z,92.10
2018-03-28T07:30:28.728Z,92.10
2018-03-28T07:32:56.853Z,92.00
2018-03-28T07:35:24.971Z,92.10
2018-03-28T07:37:53.076Z,92.20
2018-03-28T07:40:21.209Z,92.30
2018-03-28T07:42:49.504Z,92.20
2018-03-28T07:45:18.476Z,91.50
2018-03-28T07:47:46.607Z,91.40
2018-03-28T07:50:14.752Z,91.30
2018-03-28T07:52:42.861Z,90.40
2018-03-28T07:55:11.008Z,90.80
2018-03-28T07:57:39.107Z,90.60
2018-03-28T08:00:07.250Z,90.00
2018-03-28T08:02:35.356Z,90.20
2018-03-28T08:05:03.484Z,89.40
2018-03-28T08:07:31.608Z,89.20
2018-03-28T08:09:59.738Z,89.30
2018-03-28T08:12:27.857Z,88.20
2018-03-28T08:14:56.758Z,89.00
2018-03-28T08:17:25.624Z,89.40
2018-03-28T08:19:53.751Z,89.40
2018-03-28T08:22:21.886Z,85.60
2018-03-28T08:24:50.786Z,85.10
2018-03-28T08:27:19.671Z,85.50
2018-03-28T08:29:48.577Z,85.90
2018-03-28T08:32:16.690Z,85.90
2018-03-28T08:34:44.824Z,87.60
2018-03-28T08:37:12.934Z,87.80
2018-03-28T08:39:41.071Z,86.70
2018-03-28T08:42:09.175Z,88.50
2018-03-28T08:44:37.328Z,86.90
2018-03-28T08:47:05.450Z,87.40
2018-03-28T08:49:33.621Z,87.60
2018-03-28T08:52:01.740Z,87.00
2018-03-28T08:54:29.875Z,88.20
2018-03-28T08:56:57.978Z,88.80
2018-03-28T08:59:26.112Z,89.40
2018-03-28T09:01:54.227Z,89.60
2018-03-28T09:04:22.322Z,90.00
2018-03-28T09:06:50.454Z,90.30
2018-03-28T09:09:19.371Z,90.50
2018-03-28T09:11:47.515Z,90.50
2018-03-28T09:14:16.379Z,90.90
2018-03-28T09:16:44.519Z,90.80
2018-03-28T09:19:12.635Z,90.70
2018-03-28T09:21:40.779Z,90.40
2018-03-28T09:24:08.882Z,90.50
2018-03-28T09:26:37.032Z,90.80
2018-03-28T09:29:05.186Z,90.70
2018-03-28T09:31:33.344Z,90.30
2018-03-28T09:34:01.460Z,90.50
2018-03-28T09:36:29.645Z,90.60
2018-03-28T09:38:57.830Z,90.90
2018-03-28T09:41:26.028Z,90.90
2018-03-28T09:43:54.218Z,91.10
2018-03-28T09:46:22.417Z,91.30
2018-03-28T09:48:50.599Z,91.50
2018-03-28T09:51:18.802Z,91.70
2018-03-28T09:53:46.972Z,91.60
2018-03-28T09:56:15.166Z,91.60
2018-03-28T09:58:44.093Z,91.90
2018-03-28T10:01:12.304Z,91.90
2018-03-28T10:03:46.044Z,91.70
2018-03-28T10:06:15.007Z,91.80
2018-03-28T10:08:43.862Z,91.80
2018-03-28T10:11:13.502Z,91.40
2018-03-28T10:13:41.673Z,91.40
2018-03-28T10:16:09.894Z,91.40
2018-03-28T10:18:38.826Z,91.90
2018-03-28T10:21:07.013Z,91.80
2018-03-28T10:23:35.174Z,91.30
2018-03-28T10:26:03.516Z,91.40
2018-03-28T10:28:31.725Z,91.60
2018-03-28T10:30:59.931Z,91.90
2018-03-28T10:33:28.099Z,92.20
2018-03-28T10:35:56.300Z,92.00
2018-03-28T10:38:25.263Z,92.30
2018-03-28T10:40:53.454Z,92.20
2018-03-28T10:43:21.630Z,91.30
2018-03-28T10:45:50.620Z,91.00
2018-03-28T10:48:18.814Z,91.00
2018-03-28T10:50:47.773Z,91.00
2018-03-28T10:53:26.079Z,90.90
2018-03-28T10:55:54.260Z,91.30
2018-03-28T10:58:22.516Z,90.80
2018-03-28T11:00:50.763Z,91.60
2018-03-28T11:03:18.940Z,91.70
2018-03-28T11:05:47.182Z,91.80
2018-03-28T11:08:15.327Z,92.10
2018-03-28T11:10:43.472Z,91.90
2018-03-28T11:13:11.680Z,92.10
2018-03-28T11:15:39.871Z,92.20
2018-03-28T11:18:08.790Z,91.10
2018-03-28T11:20:37.203Z,91.20
2018-03-28T11:23:05.546Z,91.40
2018-03-28T11:25:34.158Z,90.40
2018-03-28T11:28:02.530Z,90.30
2018-03-28T11:30:30.852Z,91.50
2018-03-28T11:32:59.755Z,91.60
2018-03-28T11:35:28.652Z,90.80
2018-03-28T11:37:57.682Z,90.60
2018-03-28T11:40:26.541Z,91.00
2018-03-28T11:42:55.422Z,91.20
2018-03-28T11:45:24.316Z,91.10
2018-03-28T11:47:53.370Z,90.50
2018-03-28T11:50:21.499Z,90.50
2018-03-28T11:52:49.658Z,91.40
2018-03-28T11:55:18.534Z,90.50
2018-03-28T11:57:46.678Z,90.50
2018-03-28T12:00:14.883Z,90.80
2018-03-28T12:02:43.035Z,90.10
2018-03-28T12:05:11.149Z,88.50
2018-03-28T12:07:40.404Z,86.90
2018-03-28T12:10:08.514Z,86.80
2018-03-28T12:12:37.415Z,85.10
2018-03-28T12:15:06.292Z,85.10
2018-03-28T12:17:35.189Z,84.50
2018-03-28T12:20:03.365Z,84.50
2018-03-28T12:22:32.272Z,84.50
2018-03-28T12:25:07.305Z,84.50
2018-03-28T12:27:36.204Z,82.80
2018-03-28T12:30:04.324Z,82.90
2018-03-28T12:32:32.588Z,82.70
2018-03-28T12:35:00.703Z,83.70
2018-03-28T12:37:29.599Z,82.40
2018-03-28T12:39:58.490Z,82.30
2018-03-28T12:42:27.396Z,81.70
2018-03-28T12:44:55.509Z,81.70
2018-03-28T12:47:23.653Z,81.10
2018-03-28T12:49:51.830Z,80.70
2018-03-28T12:52:20.009Z,79.70
2018-03-28T12:54:48.062Z,79.50
2018-03-28T12:57:16.951Z,77.60
2018-03-28T12:59:45.851Z,78.40
2018-03-28T13:02:14.826Z,78.20
2018-03-28T13:04:42.899Z,78.20
2018-03-28T13:07:11.073Z,78.10
2018-03-28T13:09:39.266Z,77.90
2018-03-28T13:12:08.504Z,77.30
2018-03-28T13:14:36.722Z,76.60
2018-03-28T13:17:05.067Z,77.00
2018-03-28T13:19:33.227Z,77.50
2018-03-28T13:22:01.382Z,77.60
2018-03-28T13:24:29.516Z,77.70
2018-03-28T13:26:57.724Z,78.20
2018-03-28T13:29:26.804Z,76.60
2018-03-28T13:31:54.972Z,77.30
2018-03-28T13:34:23.951Z,77.20
2018-03-28T13:36:52.089Z,76.50
2018-03-28T13:39:20.387Z,77.90
2018-03-28T13:41:48.521Z,79.70
2018-03-28T13:44:16.649Z,78.80
2018-03-28T13:46:45.730Z,79.20
2018-03-28T13:49:18.122Z,79.20
2018-03-28T13:51:48.734Z,78.50
2018-03-28T13:54:25.172Z,78.20
2018-03-28T13:57:07.189Z,79.90
2018-03-28T13:59:37.863Z,79.60
2018-03-28T14:02:07.152Z,79.00
2018-03-28T14:04:35.347Z,78.90
2018-03-28T14:07:04.251Z,78.20
2018-03-28T14:09:32.376Z,78.20
2018-03-28T14:12:00.540Z,79.20
2018-03-28T14:14:28.649Z,78.50
2018-03-28T14:16:57.569Z,80.70
2018-03-28T14:19:25.684Z,80.70
2018-03-28T14:21:53.844Z,80.30
2018-03-28T14:24:21.952Z,80.00
2018-03-28T14:26:50.102Z,81.30
2018-03-28T14:29:18.206Z,82.30
2018-03-28T14:31:46.372Z,84.90
2018-03-28T14:34:14.483Z,84.50
2018-03-28T14:36:43.390Z,86.90
2018-03-28T14:39:11.516Z,86.90
2018-03-28T14:41:39.651Z,88.20
2018-03-28T14:44:07.768Z,89.20
2018-03-28T14:46:36.686Z,90.20
2018-03-28T14:49:04.800Z,89.70
2018-03-28T14:51:32.937Z,90.50
2018-03-28T14:54:01.065Z,91.10
2018-03-28T14:56:29.263Z,91.80
2018-03-28T14:58:58.154Z,93.30
2018-03-28T15:01:27.049Z,93.10
2018-03-28T15:03:55.945Z,93.50
2018-03-28T15:06:24.057Z,93.50
2018-03-28T15:08:53.391Z,93.60
2018-03-28T15:11:21.509Z,94.30
2018-03-28T15:13:49.634Z,94.80
2018-03-28T15:16:17.744Z,94.60
2018-03-28T15:18:45.876Z,94.80
2018-03-28T15:21:13.989Z,95.30
2018-03-28T15:23:42.901Z,95.30
2018-03-28T15:26:11.003Z,95.30
2018-03-28T15:28:39.143Z,95.50
2018-03-28T15:31:07.260Z,95.40
2018-03-28T15:33:37.215Z,95.50
2018-03-28T15:36:06.079Z,95.40
2018-03-28T15:38:34.213Z,95.40
2018-03-28T15:41:02.650Z,95.20
2018-03-28T15:43:31.551Z,95.20
2018-03-28T15:46:00.423Z,95.00
2018-03-28T15:48:28.551Z,95.00
2018-03-28T15:50:56.661Z,95.40
2018-03-28T15:53:24.796Z,96.10
2018-03-28T15:55:52.904Z,96.20
2018-03-28T15:58:21.037Z,96.80
2018-03-28T16:00:49.148Z,96.50
2018-03-28T16:03:17.274Z,96.80
2018-03-28T16:05:45.381Z,97.40
2018-03-28T16:08:13.527Z,97.70
2018-03-28T16:10:41.637Z,98.20
2018-03-28T16:15:39.133Z,98.30
2018-03-28T16:18:07.263Z,98.50
2018-03-28T16:20:35.383Z,98.40
2018-03-28T16:23:04.469Z,98.60
2018-03-28T16:25:32.584Z,98.80
2018-03-28T16:28:00.714Z,99.00
2018-03-28T16:30:28.824Z,99.40
2018-03-28T16:32:56.983Z,99.50
2018-03-28T16:35:25.248Z,99.40
2018-03-28T16:37:53.381Z,99.20
2018-03-28T16:40:21.494Z,99.30
2018-03-28T16:42:50.387Z,99.90
2018-03-28T16:45:19.276Z,99.90
2018-03-28T16:47:48.176Z,99.90
2018-03-28T16:50:17.046Z,99.90
2018-03-28T16:52:45.181Z,99.90
2018-03-28T16:55:13.975Z,99.90
2018-03-28T16:57:42.092Z,99.80
2018-03-28T17:00:10.989Z,99.60
2018-03-28T17:02:39.872Z,99.30
2018-03-28T17:05:08.742Z,99.60
2018-03-28T17:07:36.890Z,99.60
2018-03-28T17:10:05.013Z,99.40
2018-03-28T17:12:33.916Z,99.00
2018-03-28T17:15:02.030Z,99.00
2018-03-28T17:17:30.177Z,99.10
2018-03-28T17:19:58.282Z,99.20
2018-03-28T17:22:26.414Z,99.10
2018-03-28T17:24:54.518Z,99.50
2018-03-28T17:27:22.658Z,99.80
2018-03-28T17:29:50.768Z,99.90
2018-03-28T17:32:18.904Z,99.90
2018-03-28T17:34:47.007Z,99.90
2018-03-28T17:37:15.144Z,99.90
2018-03-28T17:39:44.560Z,99.90
2018-03-28T17:42:12.673Z,99.90
2018-03-28T17:44:42.428Z,99.90
2018-03-28T17:47:11.313Z,99.90
2018-03-28T17:49:40.225Z,99.90
2018-03-28T17:52:08.335Z,99.90
2018-03-28T17:54:36.462Z,99.90
2018-03-28T17:57:04.576Z,99.90
2018-03-28T17:59:32.732Z,99.90
2018-03-28T18:02:00.840Z,99.90
2018-03-28T18:04:28.973Z,99.90
2018-03-28T18:06:57.090Z,99.90
2018-03-28T18:09:25.218Z,99.90
2018-03-28T18:11:53.322Z,99.90
2018-03-28T18:14:22.653Z,99.90
2018-03-28T18:16:50.759Z,99.90
2018-03-28T18:19:18.906Z,99.90
2018-03-28T18:21:47.016Z,99.90
2018-03-28T18:24:15.159Z,99.90
2018-03-28T18:26:43.260Z,99.90
2018-03-28T18:29:11.387Z,99.90
2018-03-28T18:31:39.500Z,99.90
2018-03-28T18:34:07.679Z,99.90
2018-03-28T18:36:35.800Z,99.90
2018-03-28T18:39:03.937Z,99.90
2018-03-28T18:41:32.035Z,99.90
2018-03-28T18:44:00.165Z,99.90
2018-03-28T18:46:28.288Z,99.90
2018-03-28T18:48:56.419Z,99.90
2018-03-28T18:51:24.523Z,99.90
2018-03-28T18:53:52.675Z,99.90
2018-03-28T18:56:20.789Z,99.90
2018-03-28T18:58:48.889Z,99.90
2018-03-28T19:01:17.783Z,99.90
2018-03-28T19:03:46.659Z,99.90
2018-03-28T19:06:14.801Z,99.90
2018-03-28T19:08:42.913Z,99.90
2018-03-28T19:11:11.803Z,99.90
2018-03-28T19:13:40.746Z,99.90
2018-03-28T19:16:09.607Z,99.90
2018-03-28T19:18:37.724Z,99.90
2018-03-28T19:21:05.853Z,99.90
2018-03-28T19:23:33.960Z,99.90
2018-03-28T19:26:02.095Z,99.90
2018-03-28T19:28:30.959Z,99.90
2018-03-28T19:30:59.103Z,99.90
2018-03-28T19:33:27.210Z,99.90
2018-03-28T19:35:55.331Z,99.90
2018-03-28T19:38:23.443Z,99.90
2018-03-28T19:40:51.569Z,99.70
2018-03-28T19:43:19.691Z,99.90
2018-03-28T19:45:47.825Z,99.90
2018-03-28T19:48:15.944Z,99.90
2018-03-28T19:50:44.067Z,99.70
2018-03-28T19:53:12.197Z,99.70
2018-03-28T19:55:41.085Z,99.90
2018-03-28T19:58:09.236Z,99.80
2018-03-28T20:00:37.359Z,99.40
2018-03-28T20:03:05.466Z,99.60
2018-03-28T20:05:33.595Z,99.40
2018-03-28T20:08:01.708Z,99.60
2018-03-28T20:10:29.834Z,99.60
2018-03-28T20:12:58.698Z,99.10
2018-03-28T20:15:26.840Z,99.10
2018-03-28T20:17:54.930Z,98.80
2018-03-28T20:20:23.070Z,98.30
2018-03-28T20:22:51.186Z,99.00
2018-03-28T20:25:19.306Z,98.70
2018-03-28T20:27:47.426Z,99.30
2018-03-28T20:30:15.539Z,99.30
2018-03-28T20:32:44.454Z,99.40
2018-03-28T20:35:12.568Z,99.40
2018-03-28T20:37:40.724Z,99.90
2018-03-28T20:40:08.924Z,99.90
2018-03-28T20:42:37.100Z,99.90
2018-03-28T20:45:05.207Z,99.90
2018-03-28T20:47:33.348Z,99.90
2018-03-28T20:50:01.504Z,99.90
2018-03-28T20:52:29.676Z,99.90
2018-03-28T20:54:57.843Z,99.90
2018-03-28T20:57:25.974Z,99.90
2018-03-28T20:59:54.090Z,99.90
2018-03-28T21:02:22.534Z,99.90
2018-03-28T21:04:51.068Z,99.90
2018-03-28T21:07:19.678Z,99.90
2018-03-28T21:09:48.556Z,99.90
2018-03-28T21:12:16.674Z,99.90
2018-03-28T21:14:44.797Z,99.80
2018-03-28T21:17:12.950Z,99.90
2018-03-28T21:19:41.062Z,99.90
2018-03-28T21:22:09.982Z,99.90
2018-03-28T21:24:38.086Z,99.90
2018-03-28T21:27:06.302Z,99.90
2018-03-28T21:29:35.171Z,99.90
2018-03-28T21:32:03.411Z,99.90
2018-03-28T21:34:31.517Z,99.90
2018-03-28T21:36:59.669Z,99.90
2018-03-28T21:39:27.780Z,99.90
2018-03-28T21:41:56.673Z,99.90
2018-03-28T21:44:24.822Z,99.90
2018-03-28T21:46:53.008Z,99.40
2018-03-28T21:49:21.121Z,99.40
2018-03-28T21:51:49.237Z,99.70
2018-03-28T21:54:17.383Z,99.90
2018-03-28T21:56:45.482Z,99.50
2018-03-28T21:59:13.616Z,99.80
2018-03-28T22:01:41.720Z,99.80
2018-03-28T22:04:09.853Z,99.70
2018-03-28T22:06:37.954Z,99.60
2018-03-28T22:09:06.095Z,98.90
2018-03-28T22:11:34.210Z,98.70
2018-03-28T22:14:03.140Z,97.50
2018-03-28T22:16:32.023Z,97.20
2018-03-28T22:19:00.150Z,97.20
2018-03-28T22:21:28.265Z,97.80
2018-03-28T22:23:56.400Z,97.60
2018-03-28T22:26:24.517Z,97.50
2018-03-28T22:28:52.659Z,98.00
2018-03-28T22:31:20.791Z,98.20
2018-03-28T22:33:49.688Z,98.10
2018-03-28T22:36:18.551Z,97.40
2018-03-28T22:38:46.692Z,97.40
2018-03-28T22:41:14.804Z,97.70
2018-03-28T22:43:42.940Z,97.40
2018-03-28T22:46:11.047Z,97.40
2018-03-28T22:48:39.179Z,96.30
2018-03-28T22:51:07.299Z,97.00
2018-03-28T22:53:35.444Z,97.00
2018-03-28T22:56:03.561Z,96.50
2018-03-28T22:58:32.454Z,96.70
2018-03-28T23:01:00.567Z,96.70
2018-03-28T23:03:28.707Z,96.40
2018-03-28T23:05:56.816Z,96.40
2018-03-28T23:08:24.952Z,96.40
2018-03-28T23:10:53.059Z,96.20
2018-03-28T23:13:21.196Z,96.00
2018-03-28T23:15:49.337Z,95.90
2018-03-28T23:18:17.431Z,95.30
2018-03-28T23:20:46.330Z,94.90
2018-03-28T23:23:15.197Z,95.00
2018-03-28T23:25:43.311Z,95.00
2018-03-28T23:28:11.421Z,94.70
2018-03-28T23:30:39.549Z,94.90
2018-03-28T23:33:08.491Z,94.60
2018-03-28T23:35:36.650Z,94.20
2018-03-28T23:38:04.759Z,94.50
2018-03-28T23:40:33.660Z,94.20
2018-03-28T23:43:02.558Z,94.10
2018-03-28T23:45:31.452Z,94.60
2018-03-28T23:47:59.565Z,94.60
2018-03-28T23:50:27.705Z,94.70
2018-03-28T23:52:55.811Z,94.80
2018-03-28T23:55:23.944Z,94.80
2018-03-28T23:57:52.068Z,94.60
